createdAt,value
2023-03-29T00:01:12.375Z,1.50
2023-03-29T00:04:02.506Z,2.03
2023-03-29T00:06:33.144Z,2.05
2023-03-29T00:09:01.818Z,1.60
2023-03-29T00:11:29.798Z,1.67
2023-03-29T00:13:57.597Z,2.13
2023-03-29T00:16:25.544Z,1.38
2023-03-29T00:18:53.424Z,2.17
2023-03-29T00:21:21.202Z,1.92
2023-03-29T00:23:50.521Z,1.50
2023-03-29T00:26:18.273Z,1.40
2023-03-29T00:28:46.044Z,1.55
2023-03-29T00:31:15.516Z,1.77
2023-03-29T00:33:44.175Z,1.60
2023-03-29T00:36:13.493Z,1.58
2023-03-29T00:38:41.628Z,1.70
2023-03-29T00:41:11.648Z,1.75
2023-03-29T00:44:00.785Z,2.00
2023-03-29T00:46:30.608Z,1.50
2023-03-29T00:49:01.960Z,1.75
2023-03-29T00:51:34.228Z,1.70
2023-03-29T00:54:04.578Z,1.75
2023-03-29T00:56:37.451Z,1.63
2023-03-29T00:59:08.012Z,1.50
2023-03-29T01:01:42.159Z,1.63
2023-03-29T01:04:18.375Z,2.00
2023-03-29T01:06:49.593Z,2.08
2023-03-29T01:09:21.057Z,1.52
2023-03-29T01:11:55.350Z,1.58
2023-03-29T01:14:30.931Z,1.52
2023-03-29T01:16:59.456Z,1.70
2023-03-29T01:19:33.962Z,1.80
2023-03-29T01:22:13.509Z,1.30
2023-03-29T01:24:56.600Z,1.50
2023-03-29T01:27:40.315Z,1.60
2023-03-29T01:30:14.170Z,1.30
2023-03-29T01:32:48.822Z,1.67
2023-03-29T01:35:22.224Z,1.55
2023-03-29T01:37:57.152Z,1.60
2023-03-29T01:40:28.128Z,1.52
2023-03-29T01:43:05.533Z,1.58
2023-03-29T01:45:37.830Z,1.30
2023-03-29T01:48:11.999Z,1.95
2023-03-29T01:50:46.129Z,1.50
2023-03-29T01:53:20.128Z,1.58
2023-03-29T01:55:52.845Z,1.85
2023-03-29T01:58:24.874Z,1.85
2023-03-29T02:00:55.336Z,1.35
2023-03-29T02:03:26.655Z,1.50
2023-03-29T02:05:56.172Z,1.52
2023-03-29T02:08:24.267Z,1.70
2023-03-29T02:10:52.840Z,1.42
2023-03-29T02:13:22.115Z,1.60
2023-03-29T02:15:49.937Z,1.50
2023-03-29T02:18:19.864Z,1.40
2023-03-29T02:20:50.059Z,1.25
2023-03-29T02:23:23.471Z,1.70
2023-03-29T02:25:53.552Z,1.35
2023-03-29T02:28:24.422Z,1.80
2023-03-29T02:30:57.622Z,1.45
2023-03-29T02:33:31.180Z,1.50
2023-03-29T02:36:04.383Z,1.45
2023-03-29T02:38:33.251Z,1.90
2023-03-29T02:41:02.469Z,1.42
2023-03-29T02:43:33.782Z,1.60
2023-03-29T02:46:02.575Z,1.40
2023-03-29T02:48:31.977Z,1.45
2023-03-29T02:51:04.459Z,1.17
2023-03-29T02:53:38.941Z,1.40
2023-03-29T02:56:07.760Z,1.30
2023-03-29T02:58:36.910Z,1.50
2023-03-29T03:01:06.845Z,1.75
2023-03-29T03:03:35.848Z,1.33
2023-03-29T03:06:03.749Z,1.63
2023-03-29T03:08:32.188Z,1.50
2023-03-29T03:11:00.249Z,1.45
2023-03-29T03:13:28.110Z,1.65
2023-03-29T03:15:57.334Z,1.55
2023-03-29T03:18:25.106Z,1.50
2023-03-29T03:20:56.917Z,1.40
2023-03-29T03:23:25.066Z,1.60
2023-03-29T03:25:53.696Z,1.63
2023-03-29T03:28:22.096Z,1.00
2023-03-29T03:30:49.977Z,1.45
2023-03-29T03:33:19.411Z,1.40
2023-03-29T03:35:47.976Z,1.23
2023-03-29T03:38:16.673Z,1.40
2023-03-29T03:40:44.464Z,1.48
2023-03-29T03:43:12.666Z,1.52
2023-03-29T03:45:40.442Z,1.40
2023-03-29T03:48:08.722Z,1.33
2023-03-29T03:50:38.326Z,1.27
2023-03-29T03:53:06.091Z,1.20
2023-03-29T03:55:34.569Z,1.10
2023-03-29T03:58:02.338Z,1.63
2023-03-29T04:00:30.087Z,1.20
2023-03-29T04:02:57.915Z,1.75
2023-03-29T04:05:25.803Z,1.70
2023-03-29T04:07:56.131Z,1.45
2023-03-29T04:10:23.873Z,1.50
2023-03-29T04:12:51.622Z,1.33
2023-03-29T04:15:20.334Z,1.70
2023-03-29T04:17:48.182Z,1.48
2023-03-29T04:20:16.663Z,1.50
2023-03-29T04:22:44.424Z,1.40
2023-03-29T04:25:13.601Z,1.27
2023-03-29T04:27:41.668Z,1.25
2023-03-29T04:30:11.004Z,1.65
2023-03-29T04:32:39.053Z,1.48
2023-03-29T04:35:08.019Z,1.25
2023-03-29T04:37:35.823Z,1.52
2023-03-29T04:40:09.556Z,1.58
2023-03-29T04:42:39.009Z,1.40
2023-03-29T04:45:08.048Z,1.50
2023-03-29T04:47:36.606Z,1.70
2023-03-29T04:50:05.006Z,1.33
2023-03-29T04:52:33.394Z,1.52
2023-03-29T04:55:01.495Z,1.50
2023-03-29T04:57:29.837Z,1.60
2023-03-29T04:59:58.983Z,1.42
2023-03-29T05:02:27.133Z,1.42
2023-03-29T05:04:54.995Z,1.70
2023-03-29T05:07:22.991Z,1.40
2023-03-29T05:09:50.736Z,1.33
2023-03-29T05:12:18.496Z,1.60
2023-03-29T05:14:46.773Z,1.50
2023-03-29T05:17:15.842Z,1.42
2023-03-29T05:19:44.518Z,1.60
2023-03-29T05:22:12.324Z,1.80
2023-03-29T05:24:40.099Z,1.77
2023-03-29T05:27:07.855Z,1.77
2023-03-29T05:29:35.615Z,1.40
2023-03-29T05:32:03.406Z,1.70
2023-03-29T05:34:32.598Z,1.48
2023-03-29T05:37:01.561Z,1.50
2023-03-29T05:39:29.445Z,1.65
2023-03-29T05:41:57.173Z,1.80
2023-03-29T05:44:24.930Z,1.70
2023-03-29T05:46:53.116Z,1.63
2023-03-29T05:49:21.536Z,1.70
2023-03-29T05:51:52.060Z,1.65
2023-03-29T05:54:19.863Z,1.48
2023-03-29T05:56:47.689Z,1.60
2023-03-29T05:59:15.506Z,1.80
2023-03-29T06:01:45.386Z,1.70
2023-03-29T06:04:13.448Z,2.15
2023-03-29T06:06:41.676Z,1.63
2023-03-29T06:09:10.852Z,1.63
2023-03-29T06:11:39.295Z,1.70
2023-03-29T06:14:07.688Z,2.55
2023-03-29T06:16:36.427Z,1.85
2023-03-29T06:19:05.339Z,1.95
2023-03-29T06:21:33.075Z,2.10
2023-03-29T06:24:01.224Z,1.63
2023-03-29T06:26:30.636Z,1.80
2023-03-29T06:28:58.508Z,1.70
2023-03-29T06:31:26.544Z,1.77
2023-03-29T06:33:54.361Z,1.80
2023-03-29T06:36:22.390Z,1.55
2023-03-29T06:38:50.170Z,1.73
2023-03-29T06:41:17.962Z,1.77
2023-03-29T06:43:47.038Z,1.70
2023-03-29T06:46:15.037Z,1.55
2023-03-29T06:48:42.904Z,1.65
2023-03-29T06:51:10.674Z,1.80
2023-03-29T06:53:38.515Z,1.70
2023-03-29T06:56:09.381Z,2.10
2023-03-29T06:58:37.971Z,2.00
2023-03-29T07:01:07.744Z,1.95
2023-03-29T07:03:36.364Z,1.90
2023-03-29T07:06:09.958Z,2.10
2023-03-29T07:08:43.578Z,1.80
2023-03-29T07:11:13.619Z,1.60
2023-03-29T07:13:42.395Z,2.00
2023-03-29T07:16:12.841Z,1.95
2023-03-29T07:18:41.602Z,1.98
2023-03-29T07:21:10.593Z,2.25
2023-03-29T07:23:38.988Z,1.58
2023-03-29T07:26:08.136Z,2.05
2023-03-29T07:28:37.536Z,2.28
2023-03-29T07:31:06.772Z,1.73
2023-03-29T07:33:35.979Z,1.80
2023-03-29T07:36:04.882Z,1.85
2023-03-29T07:38:32.971Z,2.10
2023-03-29T07:41:04.073Z,1.85
2023-03-29T07:43:32.120Z,2.83
2023-03-29T07:46:02.081Z,2.03
2023-03-29T07:48:30.289Z,2.40
2023-03-29T07:50:59.441Z,2.30
2023-03-29T07:53:29.752Z,1.80
2023-03-29T07:55:57.716Z,2.08
2023-03-29T07:58:25.576Z,1.98
2023-03-29T08:00:53.431Z,2.03
2023-03-29T08:03:21.746Z,2.30
2023-03-29T08:05:49.564Z,2.40
2023-03-29T08:08:18.698Z,2.45
2023-03-29T08:10:46.402Z,2.15
2023-03-29T08:13:14.225Z,2.60
2023-03-29T08:15:46.352Z,2.17
2023-03-29T08:18:14.247Z,2.33
2023-03-29T08:20:42.599Z,2.35
2023-03-29T08:23:10.765Z,2.22
2023-03-29T08:25:39.889Z,2.65
2023-03-29T08:28:07.927Z,1.90
2023-03-29T08:30:36.170Z,2.30
2023-03-29T08:33:04.014Z,2.15
2023-03-29T08:35:32.280Z,1.98
2023-03-29T08:38:02.154Z,2.15
2023-03-29T08:40:31.415Z,2.20
2023-03-29T08:43:33.517Z,2.20
2023-03-29T08:46:12.884Z,2.20
2023-03-29T08:48:45.236Z,2.58
2023-03-29T08:51:21.534Z,2.22
2023-03-29T08:53:53.514Z,2.45
2023-03-29T08:56:26.210Z,2.15
2023-03-29T08:58:57.709Z,1.92
2023-03-29T09:01:29.754Z,1.95
2023-03-29T09:04:07.050Z,2.03
2023-03-29T09:06:34.849Z,2.28
2023-03-29T09:09:02.683Z,2.08
2023-03-29T09:11:49.585Z,2.28
2023-03-29T09:14:40.259Z,2.22
2023-03-29T09:17:17.914Z,2.72
2023-03-29T09:19:56.118Z,2.35
2023-03-29T09:22:31.894Z,2.00
2023-03-29T09:25:12.382Z,1.92
2023-03-29T09:27:47.423Z,2.53
2023-03-29T09:30:25.901Z,2.15
2023-03-29T09:32:55.364Z,2.03
2023-03-29T09:35:25.110Z,2.15
2023-03-29T09:37:55.009Z,2.75
2023-03-29T09:40:27.338Z,2.33
2023-03-29T09:42:56.787Z,2.60
2023-03-29T09:45:25.941Z,2.20
2023-03-29T09:47:58.083Z,2.40
2023-03-29T09:50:32.341Z,2.42
2023-03-29T09:53:00.660Z,2.50
2023-03-29T09:55:31.084Z,2.60
2023-03-29T09:58:01.933Z,2.78
2023-03-29T10:00:31.114Z,3.35
2023-03-29T10:03:00.271Z,2.47
2023-03-29T10:05:37.851Z,2.63
2023-03-29T10:08:19.836Z,2.38
2023-03-29T10:10:48.472Z,2.28
2023-03-29T10:13:24.106Z,2.42
2023-03-29T10:16:07.547Z,2.53
2023-03-29T10:18:41.613Z,2.42
2023-03-29T10:21:14.463Z,2.92
2023-03-29T10:23:43.860Z,3.03
2023-03-29T10:26:22.917Z,2.55
2023-03-29T10:28:53.943Z,2.15
2023-03-29T10:31:24.407Z,2.17
2023-03-29T10:33:54.936Z,2.50
2023-03-29T10:36:24.429Z,2.92
2023-03-29T10:38:54.190Z,2.53
2023-03-29T10:41:24.081Z,2.40
2023-03-29T10:43:52.522Z,2.50
2023-03-29T10:46:24.249Z,2.35
2023-03-29T10:48:57.439Z,2.70
2023-03-29T10:51:27.728Z,2.75
2023-03-29T10:53:55.472Z,2.42
2023-03-29T10:56:37.141Z,2.60
2023-03-29T10:59:23.142Z,2.97
2023-03-29T11:02:06.683Z,2.80
2023-03-29T11:04:44.015Z,2.15
2023-03-29T11:07:27.197Z,2.05
2023-03-29T11:10:03.347Z,2.90
2023-03-29T11:12:40.120Z,2.70
2023-03-29T11:15:34.422Z,2.53
2023-03-29T11:18:26.250Z,2.97
2023-03-29T11:20:59.249Z,2.70
2023-03-29T11:23:40.365Z,2.58
2023-03-29T11:26:16.659Z,3.00
2023-03-29T11:28:53.068Z,3.92
2023-03-29T11:31:32.685Z,2.25
2023-03-29T11:34:15.712Z,2.60
2023-03-29T11:36:52.751Z,2.92
2023-03-29T11:39:31.483Z,2.65
2023-03-29T11:42:09.313Z,2.80
2023-03-29T11:44:38.480Z,2.60
2023-03-29T11:47:12.009Z,3.13
2023-03-29T11:49:45.560Z,2.30
2023-03-29T11:52:19.323Z,2.28
2023-03-29T11:54:51.913Z,3.20
2023-03-29T11:57:24.694Z,3.17
2023-03-29T12:00:00.402Z,3.15
2023-03-29T12:02:34.591Z,2.42
2023-03-29T12:05:12.852Z,2.80
2023-03-29T12:07:48.408Z,3.45
2023-03-29T12:10:20.531Z,2.97
2023-03-29T12:12:56.366Z,2.63
2023-03-29T12:15:26.331Z,2.60
2023-03-29T12:18:03.522Z,2.55
2023-03-29T12:20:37.870Z,2.47
2023-03-29T12:23:07.003Z,3.00
2023-03-29T12:25:42.220Z,3.45
2023-03-29T12:28:26.242Z,2.53
2023-03-29T12:31:02.520Z,2.55
2023-03-29T12:33:53.035Z,2.97
2023-03-29T12:36:52.691Z,2.38
2023-03-29T12:39:22.958Z,2.35
2023-03-29T12:41:53.411Z,2.28
2023-03-29T12:44:24.214Z,2.30
2023-03-29T12:46:54.743Z,2.00
2023-03-29T12:49:29.287Z,2.17
2023-03-29T12:52:00.783Z,2.30
2023-03-29T12:54:31.860Z,2.20
2023-03-29T12:57:02.671Z,2.92
2023-03-29T12:59:39.379Z,1.98
2023-03-29T13:04:56.808Z,1.67
2023-03-29T13:07:46.339Z,2.58
2023-03-29T13:10:38.991Z,2.95
2023-03-29T13:13:16.560Z,1.98
2023-03-29T13:15:45.710Z,1.85
2023-03-29T13:18:32.226Z,1.88
2023-03-29T13:21:05.772Z,2.00
2023-03-29T13:23:45.881Z,1.92
2023-03-29T13:26:30.031Z,1.85
2023-03-29T13:29:22.528Z,2.10
2023-03-29T13:31:57.358Z,2.63
2023-03-29T13:34:36.623Z,2.13
2023-03-29T13:37:12.977Z,1.70
2023-03-29T13:39:50.704Z,1.67
2023-03-29T13:42:21.652Z,1.85
2023-03-29T13:44:49.925Z,2.38
2023-03-29T13:47:38.154Z,1.92
2023-03-29T13:50:12.849Z,1.90
2023-03-29T13:52:45.723Z,2.15
2023-03-29T13:55:20.994Z,1.42
2023-03-29T13:57:54.301Z,2.00
2023-03-29T14:00:26.515Z,1.77
2023-03-29T14:02:58.565Z,1.70
2023-03-29T14:05:31.516Z,1.90
2023-03-29T14:08:10.723Z,1.73
2023-03-29T14:10:42.544Z,1.90
2023-03-29T14:13:13.637Z,2.03
2023-03-29T14:15:50.745Z,3.28
2023-03-29T14:18:22.247Z,1.55
2023-03-29T14:20:53.640Z,1.90
2023-03-29T14:23:24.683Z,1.83
2023-03-29T14:25:54.018Z,2.03
2023-03-29T14:28:23.861Z,1.80
2023-03-29T14:30:52.818Z,1.73
2023-03-29T14:33:28.255Z,1.73
2023-03-29T14:35:56.941Z,1.95
2023-03-29T14:38:27.051Z,1.67
2023-03-29T14:41:00.602Z,2.00
2023-03-29T14:43:32.041Z,2.00
2023-03-29T14:46:03.499Z,1.63
2023-03-29T14:48:33.202Z,1.63
2023-03-29T14:51:01.720Z,1.70
2023-03-29T14:53:32.301Z,2.10
2023-03-29T14:56:02.428Z,1.92
2023-03-29T14:58:33.512Z,1.75
2023-03-29T15:01:05.887Z,1.60
2023-03-29T15:03:44.092Z,1.63
2023-03-29T15:06:14.271Z,1.38
2023-03-29T15:08:51.129Z,2.10
2023-03-29T15:11:27.213Z,2.00
2023-03-29T15:14:05.258Z,2.22
2023-03-29T15:16:34.023Z,1.48
2023-03-29T15:19:03.128Z,2.85
2023-03-29T15:21:34.477Z,2.60
2023-03-29T15:24:04.238Z,1.95
2023-03-29T15:26:35.153Z,3.80
2023-03-29T15:29:08.533Z,7.10
2023-03-29T15:31:38.973Z,5.57
2023-03-29T15:34:09.513Z,6.32
2023-03-29T15:36:42.450Z,6.13
2023-03-29T15:39:12.998Z,4.80
2023-03-29T15:41:42.313Z,4.43
2023-03-29T15:44:10.802Z,4.43
2023-03-29T15:46:38.600Z,3.45
2023-03-29T15:49:06.350Z,3.28
2023-03-29T15:51:34.191Z,3.55
2023-03-29T15:54:02.050Z,3.08
2023-03-29T15:56:30.029Z,2.90
2023-03-29T15:58:59.166Z,3.25
2023-03-29T16:01:34.695Z,2.15
2023-03-29T16:04:03.264Z,2.92
2023-03-29T16:06:31.257Z,2.42
2023-03-29T16:08:59.182Z,2.63
2023-03-29T16:11:28.438Z,2.30
2023-03-29T16:13:56.483Z,2.40
2023-03-29T16:16:27.102Z,2.95
2023-03-29T16:18:54.906Z,2.20
2023-03-29T16:21:24.387Z,1.83
2023-03-29T16:23:52.374Z,1.90
2023-03-29T16:26:20.117Z,1.85
2023-03-29T16:28:47.820Z,1.88
2023-03-29T16:31:15.795Z,1.80
2023-03-29T16:33:44.969Z,2.05
2023-03-29T16:36:13.206Z,1.50
2023-03-29T16:38:41.596Z,1.60
2023-03-29T16:41:14.925Z,1.92
2023-03-29T16:43:42.755Z,1.55
2023-03-29T16:46:11.687Z,1.83
2023-03-29T16:48:40.021Z,1.48
2023-03-29T16:51:10.848Z,1.70
2023-03-29T16:53:38.700Z,2.03
2023-03-29T16:56:07.867Z,2.90
2023-03-29T16:58:36.199Z,1.67
2023-03-29T17:01:09.940Z,2.30
2023-03-29T17:03:37.986Z,1.83
2023-03-29T17:06:06.932Z,1.83
2023-03-29T17:08:36.690Z,1.80
2023-03-29T17:11:06.309Z,1.55
2023-03-29T17:13:34.411Z,1.70
2023-03-29T17:16:02.728Z,2.38
2023-03-29T17:18:30.870Z,1.95
2023-03-29T17:21:00.020Z,1.98
2023-03-29T17:23:27.800Z,1.85
2023-03-29T17:25:56.941Z,2.00
2023-03-29T17:28:25.055Z,1.80
2023-03-29T17:30:53.203Z,1.67
2023-03-29T17:33:22.426Z,1.77
2023-03-29T17:35:50.627Z,1.30
2023-03-29T17:38:19.379Z,1.40
2023-03-29T17:40:53.177Z,1.73
2023-03-29T17:43:22.469Z,1.80
2023-03-29T17:45:51.993Z,1.70
2023-03-29T17:48:19.936Z,2.10
2023-03-29T17:50:47.833Z,1.52
2023-03-29T17:53:15.705Z,1.33
2023-03-29T17:55:43.515Z,1.65
2023-03-29T17:58:11.740Z,1.65
2023-03-29T18:00:41.022Z,1.95
2023-03-29T18:03:08.913Z,1.50
2023-03-29T18:05:36.977Z,1.42
2023-03-29T18:08:05.155Z,2.38
2023-03-29T18:10:32.980Z,1.55
2023-03-29T18:13:01.044Z,1.70
2023-03-29T18:15:28.865Z,2.05
2023-03-29T18:17:58.296Z,2.65
2023-03-29T18:20:26.227Z,1.67
2023-03-29T18:22:54.036Z,1.70
2023-03-29T18:25:22.133Z,1.65
2023-03-29T18:27:50.080Z,1.63
2023-03-29T18:30:17.968Z,1.67
2023-03-29T18:32:45.913Z,1.85
2023-03-29T18:35:15.129Z,2.38
2023-03-29T18:37:42.891Z,1.60
2023-03-29T18:40:11.058Z,1.90
2023-03-29T18:42:38.855Z,2.95
2023-03-29T18:45:07.459Z,1.92
2023-03-29T18:47:35.278Z,2.40
2023-03-29T18:50:03.414Z,2.47
2023-03-29T18:52:32.564Z,2.28
2023-03-29T18:55:00.313Z,2.22
2023-03-29T18:57:28.169Z,2.25
2023-03-29T18:59:55.993Z,2.22
2023-03-29T19:02:23.902Z,2.05
2023-03-29T19:04:51.835Z,1.80
2023-03-29T19:07:20.623Z,1.90
2023-03-29T19:09:49.821Z,1.33
2023-03-29T19:12:17.571Z,1.65
2023-03-29T19:14:45.398Z,2.08
2023-03-29T19:17:13.215Z,2.08
2023-03-29T19:19:41.173Z,2.10
2023-03-29T19:22:09.026Z,1.92
2023-03-29T19:24:36.831Z,1.90
2023-03-29T19:27:06.469Z,1.65
2023-03-29T19:29:34.289Z,1.73
2023-03-29T19:32:02.117Z,1.80
2023-03-29T19:34:30.535Z,2.03
2023-03-29T19:37:00.247Z,1.90
2023-03-29T19:39:29.751Z,2.25
2023-03-29T19:41:57.664Z,2.00
2023-03-29T19:44:28.132Z,1.88
2023-03-29T19:46:55.889Z,2.10
2023-03-29T19:49:23.731Z,2.05
2023-03-29T19:51:54.438Z,2.13
2023-03-29T19:54:23.484Z,2.50
2023-03-29T19:56:52.694Z,1.92
2023-03-29T19:59:20.719Z,2.28
2023-03-29T20:01:51.813Z,2.60
2023-03-29T20:04:20.024Z,2.45
2023-03-29T20:06:47.834Z,2.22
2023-03-29T20:09:16.179Z,2.22
2023-03-29T20:11:44.647Z,1.70
2023-03-29T20:14:12.610Z,2.05
2023-03-29T20:16:41.724Z,2.10
2023-03-29T20:19:14.107Z,2.85
2023-03-29T20:21:42.005Z,1.88
2023-03-29T20:24:09.890Z,2.10
2023-03-29T20:26:37.837Z,1.90
2023-03-29T20:29:06.206Z,2.13
2023-03-29T20:31:34.015Z,1.92
2023-03-29T20:34:01.839Z,2.05
2023-03-29T20:36:31.725Z,2.30
2023-03-29T20:39:00.261Z,2.63
2023-03-29T20:41:28.070Z,2.17
2023-03-29T20:43:59.716Z,1.95
2023-03-29T20:46:33.286Z,2.28
2023-03-29T20:49:01.545Z,2.42
2023-03-29T20:51:32.061Z,2.00
2023-03-29T20:54:04.560Z,2.47
2023-03-29T20:56:34.312Z,2.85
2023-03-29T20:59:03.947Z,2.38
2023-03-29T21:01:31.813Z,2.58
2023-03-29T21:03:59.901Z,2.35
2023-03-29T21:06:28.021Z,2.25
2023-03-29T21:08:57.487Z,2.75
2023-03-29T21:11:25.649Z,2.35
2023-03-29T21:13:53.907Z,2.50
2023-03-29T21:16:21.739Z,2.88
2023-03-29T21:18:49.521Z,2.47
2023-03-29T21:21:17.410Z,2.70
2023-03-29T21:23:45.223Z,2.47
2023-03-29T21:26:16.462Z,2.38
2023-03-29T21:28:44.271Z,2.53
2023-03-29T21:31:12.067Z,2.28
2023-03-29T21:33:39.886Z,2.33
2023-03-29T21:36:08.253Z,2.90
2023-03-29T21:38:36.148Z,2.70
2023-03-29T21:41:04.065Z,2.65
2023-03-29T21:43:33.381Z,2.80
2023-03-29T21:46:01.279Z,2.63
2023-03-29T21:48:29.057Z,2.40
2023-03-29T21:50:56.789Z,2.42
2023-03-29T21:53:24.643Z,2.45
2023-03-29T21:55:52.753Z,2.38
2023-03-29T21:58:20.864Z,2.40
2023-03-29T22:00:50.004Z,2.47
2023-03-29T22:03:18.053Z,2.00
2023-03-29T22:05:57.163Z,2.38
2023-03-29T22:08:26.252Z,2.53
2023-03-29T22:10:56.999Z,2.05
2023-03-29T22:13:26.157Z,2.38
2023-03-29T22:15:59.627Z,2.55
2023-03-29T22:18:28.053Z,2.75
2023-03-29T22:20:55.914Z,2.17
2023-03-29T22:23:24.850Z,2.92
2023-03-29T22:25:52.677Z,2.30
2023-03-29T22:28:20.474Z,2.30
2023-03-29T22:30:48.223Z,2.05
2023-03-29T22:33:17.359Z,2.60
2023-03-29T22:35:45.134Z,2.85
2023-03-29T22:38:12.907Z,2.67
2023-03-29T22:40:41.169Z,2.50
2023-03-29T22:43:08.853Z,2.10
2023-03-29T22:45:37.068Z,2.15
2023-03-29T22:48:05.104Z,2.20
2023-03-29T22:50:34.232Z,2.22
2023-03-29T22:53:01.955Z,2.25
2023-03-29T22:55:29.781Z,2.45
2023-03-29T22:57:57.500Z,2.13
2023-03-29T23:00:25.224Z,2.45
2023-03-29T23:02:53.092Z,2.00
2023-03-29T23:05:21.096Z,2.45
2023-03-29T23:07:50.544Z,2.03
2023-03-29T23:10:18.473Z,2.30
2023-03-29T23:12:46.702Z,2.00
2023-03-29T23:15:14.560Z,2.80
2023-03-29T23:17:42.312Z,2.13
2023-03-29T23:20:11.386Z,2.42
2023-03-29T23:22:39.726Z,2.13
2023-03-29T23:25:09.751Z,2.25
2023-03-29T23:27:37.602Z,1.90
2023-03-29T23:30:07.519Z,2.05
2023-03-29T23:32:35.319Z,1.80
2023-03-29T23:35:04.474Z,2.03
2023-03-29T23:37:32.185Z,2.30
2023-03-29T23:39:59.926Z,2.25
2023-03-29T23:42:30.811Z,2.13
2023-03-29T23:44:58.546Z,1.90
2023-03-29T23:47:27.804Z,1.90
2023-03-29T23:49:55.765Z,1.90
2023-03-29T23:52:23.515Z,1.67
2023-03-29T23:54:51.516Z,1.77
2023-03-29T23:57:19.462Z,3.15
2023-03-29T23:59:52.790Z,2.20
